EmailTwitter


Surface observations / France / LFPO (07149)

Regions: Quebec | Canada | USA | Europe | France | UK | Elsewhere
Station
Display
Info & Location for LFPO (07149) | Help decoding METAR

Weather Conditions observed on 2018/11/14 at 16:00 UTC at PARIS/ORLY, FR (LFPO)

Temperature: 13.0 Celsius.

Dewpoint: 9.0 Celsius.

Relative Humidity: 77%

Winds: East-southeast at 6 km/h or 3 knots.

Mean Sea level Pressure: 102.40 kilopascals.

Coded METAR:

LFPO 141600Z 11003KT CAVOK 13/09 Q1024 NOSIG=